Forum - i mitici sud

tutti gli utenti del gruppo possono partecipare le discussione con riferimento a sesso o non conforme a chatta.it verranno imossi

Amministratore
FCFranco 19/12/2016 ore 08:56 Quota

(nessuno) Nowcasting Lunedì 19 Dicembre 2016

Buongiorno a tutti


Notizie Meteo dell'Italia da il Meteo .It


http://ilMeteo.It


la Situazione Italiana vista dal Sat








il Radar Europeo









Brindisi

METAR LIBR 190645Z 14002KT CAVOK 04/00 Q1030 NOSIG RMK SKC VIS MIN 9999 WIND THR13 /////KT WIND THR31 00000KT BLU=

Metar di Brindisi del 19 alle 6,45z

Vento da 140° S SE 2 nodi (3,704 km) Visibilità 10000 m
Base delle Nubi e Visibilità OK
Temp 4°C Dew 0°C Ur 75% hPa 1030
Nuvolosità a 3-4 ottavi
Visibilità Minima 10000 m

Brindisi

TAF LIBR 190500Z 1906/2006 16010KT 9999 SCT020=

le TAF di Brindisi delle 5z Previsioni dalle 6z alle 6z del 20

Vento da 160° S SE 10 nodi (18,52 km) Visibilità 10000 m
Copertura 3-4 ottavi da 2000 piedi (609,6 m)


Gioia del Colle

METAR LIBV 190655Z VRB01KT 5000 BR BKN012 M01/M01 Q1028 RMK BKN VIS MIN 3500W WIND THR32 00000KT WIND THR14 VRB01KT YLO=

Metar di Gioia del Colle del 19 alle 6,55z

Vento Variabile 1 nodo (1,852 km) Visibilità 5000 m , Foschia
Copertura 5-7 ottavi da 1200 piedi (365,76 m)
Temp -1°C Dew -1°C Ur 100% hPa 1028
Nuvolosità a 5-7 ottavi
Visibilità Minima 3500 m

Gioia del Colle

TAF LIBV 190500Z 1906/1915 VRB03KT 9999 FEW010 SCT015 BECMG 1908/1910 16008KT SCT020=

le TAF di Gioia del Colle delle 5z Previsioni dalle 6z alle 15z

Vento Variabile 3 nodi (5,556 km) Visibilità 10000 m
Copertura 1-2 ottavi da 1000 piedi (304,8 m)
Copertura 3-4 ottavi da 1500 piedi (457,2 m)
le Condizioni Diverranno fra le 8z e le 10z
Vento da 160° S SE 8 nodi (14,816 km)
Copertura 3-4 ottavi da 2000 piedi (609,6 m)
2308476
Buongiorno a tutti Notizie Meteo dell'Italia da il Meteo .It http://ilMeteo.It la Situazione Italiana vista dal Sat « immagine »...
Discussione
19/12/2016 08:56:02
none
  • mi piace
    iLikeIt
    PublicVote

Vuoi partecipare anche tu a questa discussione?

Rispondi per lasciare il tuo messaggio in questa discussione